createdAt,value
2023-05-08T00:00:12.664Z,17.18
2023-05-08T00:04:14.565Z,17.17
2023-05-08T00:08:16.289Z,17.17
2023-05-08T00:12:17.806Z,17.12
2023-05-08T00:16:19.386Z,17.09
2023-05-08T00:20:21.080Z,17.06
2023-05-08T00:24:22.656Z,17.03
2023-05-08T00:28:24.219Z,17.03
2023-05-08T00:32:25.975Z,17.05
2023-05-08T00:36:28.275Z,17.03
2023-05-08T00:40:29.816Z,17.05
2023-05-08T00:44:31.444Z,17.07
2023-05-08T00:48:34.842Z,17.06
2023-05-08T00:52:37.200Z,17.09
2023-05-08T00:56:38.923Z,17.12
2023-05-08T01:00:43.865Z,17.12
2023-05-08T01:04:46.249Z,17.07
2023-05-08T01:08:47.796Z,17.06
2023-05-08T01:13:18.726Z,17.03
2023-05-08T01:17:28.521Z,17.06
2023-05-08T01:21:53.999Z,17.09
2023-05-08T01:26:32.613Z,17.10
2023-05-08T01:30:58.581Z,17.09
2023-05-08T01:35:24.268Z,17.05
2023-05-08T01:39:47.124Z,17.07
2023-05-08T01:43:53.821Z,17.02
2023-05-08T01:48:04.941Z,16.95
2023-05-08T01:52:15.200Z,16.91
2023-05-08T01:56:22.177Z,16.90
2023-05-08T02:00:25.387Z,16.95
2023-05-08T02:04:28.793Z,16.95
2023-05-08T02:08:32.000Z,16.95
2023-05-08T02:12:34.781Z,16.95
2023-05-08T02:16:38.700Z,16.95
2023-05-08T02:20:40.915Z,16.96
2023-05-08T02:24:45.238Z,16.96
2023-05-08T02:28:48.015Z,16.92
2023-05-08T02:32:50.190Z,16.91
2023-05-08T02:36:53.707Z,16.91
2023-05-08T02:41:00.917Z,16.91
2023-05-08T02:45:03.794Z,16.88
2023-05-08T02:49:12.733Z,16.88
2023-05-08T02:53:26.774Z,16.90
2023-05-08T02:57:39.534Z,16.88
2023-05-08T03:01:50.592Z,16.87
2023-05-08T03:05:57.913Z,16.90
2023-05-08T03:10:08.029Z,16.88
2023-05-08T03:14:12.472Z,16.88
2023-05-08T03:18:21.060Z,16.87
2023-05-08T03:22:23.803Z,16.87
2023-05-08T03:26:26.115Z,16.84
2023-05-08T03:30:28.025Z,16.84
2023-05-08T03:34:39.668Z,16.82
2023-05-08T03:38:42.089Z,16.82
2023-05-08T03:42:44.323Z,16.84
2023-05-08T03:46:47.745Z,16.81
2023-05-08T03:50:50.329Z,16.81
2023-05-08T03:54:52.751Z,16.84
2023-05-08T03:59:19.334Z,16.84
2023-05-08T04:03:27.677Z,16.85
2023-05-08T04:07:42.839Z,16.85
2023-05-08T04:11:54.414Z,16.80
2023-05-08T04:16:05.287Z,16.82
2023-05-08T04:20:08.917Z,16.84
2023-05-08T04:24:14.996Z,16.84
2023-05-08T04:28:18.963Z,16.82
2023-05-08T04:32:21.853Z,16.81
2023-05-08T04:36:23.787Z,16.78
2023-05-08T04:40:25.941Z,16.73
2023-05-08T04:44:28.424Z,16.77
2023-05-08T04:48:33.047Z,16.80
2023-05-08T04:52:34.952Z,16.80
2023-05-08T04:56:36.872Z,16.75
2023-05-08T05:00:38.585Z,16.75
2023-05-08T05:04:40.720Z,16.73
2023-05-08T05:08:43.115Z,16.73
2023-05-08T05:12:45.191Z,16.73
2023-05-08T05:16:47.265Z,16.80
2023-05-08T05:20:49.306Z,16.84
2023-05-08T05:24:51.606Z,16.92
2023-05-08T05:28:53.264Z,16.95
2023-05-08T05:32:55.098Z,16.95
2023-05-08T05:36:57.741Z,16.92
2023-05-08T05:40:59.801Z,16.95
2023-05-08T05:45:02.333Z,16.96
2023-05-08T05:49:05.784Z,17.02
2023-05-08T05:53:09.855Z,17.03
2023-05-08T05:57:13.151Z,17.05
2023-05-08T06:01:15.362Z,17.07
2023-05-08T06:05:19.136Z,17.07
2023-05-08T06:09:20.945Z,17.12
2023-05-08T06:13:22.706Z,17.09
2023-05-08T06:17:25.848Z,17.07
2023-05-08T06:21:28.575Z,17.05
2023-05-08T06:25:30.998Z,17.02
2023-05-08T06:29:32.546Z,17.02
2023-05-08T06:33:34.136Z,17.03
2023-05-08T06:37:35.882Z,17.05
2023-05-08T06:41:37.691Z,17.06
2023-05-08T06:45:41.721Z,17.03
2023-05-08T06:49:43.259Z,17.00
2023-05-08T06:53:44.923Z,16.95
2023-05-08T06:57:46.577Z,16.88
2023-05-08T07:01:48.227Z,16.87
2023-05-08T07:05:49.928Z,16.85
2023-05-08T07:09:51.564Z,16.85
2023-05-08T07:13:53.202Z,16.81
2023-05-08T07:17:54.850Z,16.88
2023-05-08T07:21:56.478Z,16.85
2023-05-08T07:25:58.600Z,16.91
2023-05-08T07:30:04.040Z,16.88
2023-05-08T07:34:07.243Z,16.95
2023-05-08T07:38:08.885Z,17.00
2023-05-08T07:42:10.430Z,17.07
2023-05-08T07:46:16.994Z,17.14
2023-05-08T07:50:19.054Z,17.15
2023-05-08T07:54:20.830Z,17.12
2023-05-08T07:58:23.875Z,17.22
2023-05-08T08:02:25.736Z,17.28
2023-05-08T08:06:27.337Z,17.39
2023-05-08T08:10:29.115Z,17.40
2023-05-08T08:14:30.816Z,17.39
2023-05-08T08:18:36.424Z,17.43
2023-05-08T08:22:38.017Z,17.47
2023-05-08T08:26:39.538Z,17.53
2023-05-08T08:30:41.112Z,17.60
2023-05-08T08:34:42.833Z,17.63
2023-05-08T08:38:44.331Z,17.80
2023-05-08T08:42:47.068Z,17.83
2023-05-08T08:46:52.884Z,17.94
2023-05-08T08:51:00.472Z,17.87
2023-05-08T08:55:03.878Z,17.71
2023-05-08T08:59:06.549Z,17.63
2023-05-08T09:03:08.493Z,17.60
2023-05-08T09:07:12.117Z,17.62
2023-05-08T09:11:13.740Z,17.62
2023-05-08T09:15:15.697Z,17.65
2023-05-08T09:19:17.598Z,17.73
2023-05-08T09:23:19.775Z,17.79
2023-05-08T09:27:22.520Z,17.89
2023-05-08T09:31:34.919Z,17.95
2023-05-08T09:35:37.163Z,18.01
2023-05-08T09:39:43.191Z,18.11
2023-05-08T09:43:59.967Z,18.04
2023-05-08T09:48:01.680Z,17.99
2023-05-08T09:52:03.450Z,17.96
2023-05-08T09:56:06.115Z,17.87
2023-05-08T10:00:10.429Z,17.76
2023-05-08T10:04:12.651Z,17.76
2023-05-08T10:08:23.927Z,17.63
2023-05-08T10:12:26.714Z,17.55
2023-05-08T10:16:29.736Z,17.58
2023-05-08T10:20:32.635Z,17.63
2023-05-08T10:24:38.800Z,17.71
2023-05-08T10:28:50.833Z,17.92
2023-05-08T10:32:55.437Z,18.16
2023-05-08T10:36:57.524Z,18.25
2023-05-08T10:41:02.838Z,18.26
2023-05-08T10:45:08.385Z,18.16
2023-05-08T10:49:23.284Z,18.02
2023-05-08T10:53:42.634Z,17.94
2023-05-08T10:58:03.587Z,17.99
2023-05-08T11:02:09.875Z,17.94
2023-05-08T11:06:12.392Z,17.87
2023-05-08T11:10:14.221Z,17.94
2023-05-08T11:14:16.753Z,18.02
2023-05-08T11:18:18.326Z,18.28
2023-05-08T11:22:25.967Z,18.57
2023-05-08T11:26:49.089Z,18.84
2023-05-08T11:30:55.065Z,19.07
2023-05-08T11:34:57.273Z,19.35
2023-05-08T11:39:12.729Z,19.61
2023-05-08T11:43:49.927Z,19.87
2023-05-08T11:48:01.008Z,19.86
2023-05-08T11:52:04.337Z,19.87
2023-05-08T11:56:06.043Z,19.87
2023-05-08T12:00:10.544Z,20.07
2023-05-08T12:04:13.186Z,20.48
2023-05-08T12:08:17.214Z,20.73
2023-05-08T12:12:20.237Z,20.83
2023-05-08T12:16:26.012Z,20.91
2023-05-08T12:20:27.897Z,21.05
2023-05-08T12:24:30.678Z,21.03
2023-05-08T12:28:32.385Z,21.05
2023-05-08T12:32:36.777Z,21.21
2023-05-08T12:36:38.914Z,21.28
2023-05-08T12:40:45.334Z,21.58
2023-05-08T12:44:53.530Z,21.70
2023-05-08T12:49:04.472Z,22.15
2023-05-08T12:53:17.956Z,22.84
2023-05-08T12:57:21.274Z,23.45
2023-05-08T13:01:23.605Z,23.67
2023-05-08T13:05:25.267Z,23.45
2023-05-08T13:09:27.139Z,23.22
2023-05-08T13:13:31.856Z,22.81
2023-05-08T13:17:33.483Z,22.48
2023-05-08T13:21:35.056Z,22.61
2023-05-08T13:25:37.761Z,22.42
2023-05-08T13:29:39.312Z,22.38
2023-05-08T13:33:43.161Z,22.57
2023-05-08T13:37:45.136Z,22.74
2023-05-08T13:41:46.658Z,22.91
2023-05-08T13:45:48.340Z,22.99
2023-05-08T13:49:50.265Z,22.89
2023-05-08T13:53:51.899Z,22.82
2023-05-08T13:57:53.427Z,22.56
2023-05-08T14:01:55.015Z,22.35
2023-05-08T14:05:56.774Z,22.24
2023-05-08T14:09:58.331Z,22.11
2023-05-08T14:13:59.896Z,22.01
2023-05-08T14:18:01.680Z,21.91
2023-05-08T14:22:03.320Z,21.79
2023-05-08T14:26:05.305Z,21.55
2023-05-08T14:30:07.499Z,21.61
2023-05-08T14:34:09.135Z,21.59
2023-05-08T14:38:11.953Z,21.40
2023-05-08T14:42:23.008Z,21.33
2023-05-08T14:46:25.255Z,21.19
2023-05-08T14:50:27.774Z,21.19
2023-05-08T14:54:29.485Z,21.08
2023-05-08T14:58:31.152Z,20.94
2023-05-08T15:02:32.865Z,20.79
2023-05-08T15:06:36.100Z,20.76
2023-05-08T15:10:37.689Z,20.83
2023-05-08T15:14:39.364Z,21.05
2023-05-08T15:18:41.139Z,21.30
2023-05-08T15:22:42.868Z,21.51
2023-05-08T15:26:44.455Z,21.68
2023-05-08T15:30:46.937Z,21.77
2023-05-08T15:34:49.868Z,21.85
2023-05-08T15:38:51.458Z,21.94
2023-05-08T15:42:53.210Z,21.98
2023-05-08T15:46:54.772Z,22.02
2023-05-08T15:50:56.318Z,22.08
2023-05-08T15:54:57.892Z,22.02
2023-05-08T15:58:59.445Z,21.98
2023-05-08T16:03:01.217Z,22.04
2023-05-08T16:07:03.081Z,21.89
2023-05-08T16:11:04.825Z,21.81
2023-05-08T16:15:07.047Z,21.79
2023-05-08T16:19:08.747Z,21.83
2023-05-08T16:23:10.704Z,21.86
2023-05-08T16:27:12.462Z,21.90
2023-05-08T16:31:14.215Z,21.81
2023-05-08T16:35:16.200Z,21.81
2023-05-08T16:39:18.398Z,21.64
2023-05-08T16:43:20.013Z,21.55
2023-05-08T16:47:21.618Z,21.45
2023-05-08T16:51:23.333Z,21.27
2023-05-08T16:55:25.051Z,21.11
2023-05-08T16:59:26.889Z,20.98
2023-05-08T17:03:28.591Z,20.88
2023-05-08T17:07:30.306Z,20.85
2023-05-08T17:11:31.840Z,20.83
2023-05-08T17:15:33.539Z,20.83
2023-05-08T17:19:35.289Z,20.79
2023-05-08T17:23:36.942Z,20.76
2023-05-08T17:27:38.944Z,20.69
2023-05-08T17:31:40.593Z,20.68
2023-05-08T17:35:42.319Z,20.57
2023-05-08T17:39:44.034Z,20.46
2023-05-08T17:43:45.673Z,20.35
2023-05-08T17:47:47.308Z,20.26
2023-05-08T17:51:49.030Z,20.23
2023-05-08T17:55:52.221Z,20.10
2023-05-08T17:59:53.799Z,20.08
2023-05-08T18:03:55.604Z,20.07
2023-05-08T18:07:57.198Z,20.00
2023-05-08T18:12:02.334Z,19.90
2023-05-08T18:16:03.945Z,19.80
2023-05-08T18:20:07.760Z,19.75
2023-05-08T18:24:09.500Z,19.64
2023-05-08T18:28:11.186Z,19.58
2023-05-08T18:32:12.852Z,19.53
2023-05-08T18:36:14.508Z,19.46
2023-05-08T18:40:16.234Z,19.43
2023-05-08T18:44:18.031Z,19.38
2023-05-08T18:48:19.652Z,19.28
2023-05-08T18:52:21.289Z,19.21
2023-05-08T18:56:23.285Z,19.20
2023-05-08T19:00:25.071Z,19.13
2023-05-08T19:04:26.751Z,19.10
2023-05-08T19:08:28.321Z,19.02
2023-05-08T19:12:29.981Z,19.01
2023-05-08T19:16:31.674Z,18.97
2023-05-08T19:20:33.312Z,18.96
2023-05-08T19:24:35.027Z,18.93
2023-05-08T19:28:36.596Z,18.93
2023-05-08T19:32:38.155Z,18.91
2023-05-08T19:36:39.756Z,18.89
2023-05-08T19:40:55.491Z,18.87
2023-05-08T19:44:58.518Z,18.79
2023-05-08T19:49:00.066Z,18.75
2023-05-08T19:53:01.618Z,18.69
2023-05-08T19:57:03.209Z,18.62
2023-05-08T20:01:04.953Z,18.56
2023-05-08T20:09:11.349Z,18.49
2023-05-08T20:13:12.934Z,18.42
2023-05-08T20:17:14.781Z,18.42
2023-05-08T20:21:16.312Z,18.39
2023-05-08T20:25:18.086Z,18.38
2023-05-08T20:29:20.877Z,18.36
2023-05-08T20:33:22.507Z,18.36
2023-05-08T20:37:24.054Z,18.35
2023-05-08T20:41:25.732Z,18.34
2023-05-08T20:45:27.277Z,18.29
2023-05-08T20:49:28.912Z,18.26
2023-05-08T20:53:30.553Z,18.20
2023-05-08T20:57:32.142Z,18.14
2023-05-08T21:01:33.794Z,18.09
2023-05-08T21:05:35.444Z,18.04
2023-05-08T21:09:37.088Z,17.99
2023-05-08T21:13:38.739Z,17.94
2023-05-08T21:17:40.390Z,17.92
2023-05-08T21:21:41.882Z,17.91
2023-05-08T21:25:46.581Z,17.86
2023-05-08T21:29:48.172Z,17.84
2023-05-08T21:33:49.927Z,17.81
2023-05-08T21:37:53.274Z,17.79
2023-05-08T21:41:56.100Z,17.76
2023-05-08T21:45:57.728Z,17.77
2023-05-08T21:49:59.310Z,17.74
2023-05-08T21:54:01.423Z,17.74
2023-05-08T21:58:02.939Z,17.74
2023-05-08T22:02:04.577Z,17.73
2023-05-08T22:06:06.575Z,17.62
2023-05-08T22:10:09.403Z,17.51
2023-05-08T22:14:10.976Z,17.42
2023-05-08T22:18:13.363Z,17.36
2023-05-08T22:22:15.174Z,17.33
2023-05-08T22:26:16.732Z,17.32
2023-05-08T22:30:18.395Z,17.27
2023-05-08T22:34:19.949Z,17.22
2023-05-08T22:38:21.517Z,17.18
2023-05-08T22:42:24.123Z,17.15
2023-05-08T22:46:25.878Z,17.14
2023-05-08T22:50:27.667Z,17.14
2023-05-08T22:54:29.267Z,17.09
2023-05-08T22:58:30.745Z,17.07
2023-05-08T23:02:33.280Z,17.03
2023-05-08T23:06:35.028Z,17.02
2023-05-08T23:10:36.621Z,16.98
2023-05-08T23:14:38.124Z,16.98
2023-05-08T23:18:39.853Z,16.91
2023-05-08T23:22:41.401Z,16.90
2023-05-08T23:26:43.005Z,16.85
2023-05-08T23:30:44.467Z,16.77
2023-05-08T23:34:46.039Z,16.70
2023-05-08T23:38:47.680Z,16.66
2023-05-08T23:42:49.203Z,16.57
2023-05-08T23:46:50.941Z,16.52
2023-05-08T23:50:52.646Z,16.50
2023-05-08T23:54:54.222Z,16.51
2023-05-08T23:58:56.018Z,16.50
